Time;durP1;ratioP1;P1;durP2;ratioP2;P2;SDS_P1;SDS_P2;PMS_P1;PMS_P2;Temp;Humidity;BMP_temperature;BMP_pressure;BME280_temperature;BME280_humidity;BME280_pressure;Samples;Min_cycle;Max_cycle;Signal;HPM_P1;HPM_P2
2023/05/10 00:00:43;;;;;;;;;;;;;;;;;;4936801;29;2023;-53
2023/05/10 00:03:10;;;;;;;;;;;;;;;;;;4936742;29;2104;-50
2023/05/10 00:05:40;;;;;;;;;;;;;;;;;;4937019;29;2042;-54
2023/05/10 00:08:07;;;;;;;;;;;;;;;;;;4936888;29;1930;-53
2023/05/10 00:10:35;;;;;;;;;;;;;;;;;;4936961;29;1747;-50
2023/05/10 00:13:03;;;;;;;;;;;;;;;;;;4936445;29;2163;-52
2023/05/10 00:15:30;;;;;;;;;;;;;;;;;;4936994;29;1992;-52
2023/05/10 00:17:57;;;;;;;;;;;;;;;;;;4936640;29;2290;-51
2023/05/10 00:20:25;;;;;;;;;;;;;;;;;;4936738;29;1939;-47
2023/05/10 00:22:52;;;;;;;;;;;;;;;;;;4936277;29;1793;-56
2023/05/10 00:25:21;;;;;;;;;;;;;;;;;;4936222;29;1963;-51
2023/05/10 00:27:49;;;;;;;;;;;;;;;;;;4936517;29;1973;-56
2023/05/10 00:30:16;;;;;;;;;;;;;;;;;;4935153;29;2024;-48
2023/05/10 00:32:44;;;;;;;;;;;;;;;;;;4936439;29;2102;-54
2023/05/10 00:35:11;;;;;;;;;;;;;;;;;;4936355;29;2060;-41
2023/05/10 00:37:38;;;;;;;;;;;;;;;;;;4935056;29;1997;-45
2023/05/10 00:40:06;;;;;;;;;;;;;;;;;;4935598;29;2164;-48
2023/05/10 00:42:33;;;;;;;;;;;;;;;;;;4936311;29;2081;-51
2023/05/10 00:45:01;;;;;;;;;;;;;;;;;;4935637;29;2001;-55
2023/05/10 00:47:29;;;;;;;;;;;;;;;;;;4934961;29;1819;-51
2023/05/10 00:49:56;;;;;;;;;;;;;;;;;;4935932;29;2007;-54
2023/05/10 00:52:25;;;;;;;;;;;;;;;;;;4936093;29;1922;-50
2023/05/10 00:54:53;;;;;;;;;;;;;;;;;;4935514;29;2015;-52
2023/05/10 00:57:20;;;;;;;;;;;;;;;;;;4934821;29;2138;-54
2023/05/10 00:59:48;;;;;;;;;;;;;;;;;;4935770;29;1778;-54
2023/05/10 01:02:15;;;;;;;;;;;;;;;;;;4935506;29;1909;-54
2023/05/10 01:04:43;;;;;;;;;;;;;;;;;;4935144;29;1827;-54
2023/05/10 01:07:10;;;;;;;;;;;;;;;;;;4935905;29;1849;-52
2023/05/10 01:09:37;;;;;;;;;;;;;;;;;;4936220;29;2146;-51
2023/05/10 01:12:06;;;;;;;;;;;;;;;;;;4935895;29;1465;-53
2023/05/10 01:14:35;;;;;;;;;;;;;;;;;;4935871;29;2002;-56
2023/05/10 01:17:05;;;;;;;;;;;;;;;;;;4935271;29;2082;-53
2023/05/10 01:19:34;;;;;;;;;;;;;;;;;;4934499;29;2505;-56
2023/05/10 01:22:05;;;;;;;;;;;;;;;;;;4934055;29;2020;-53
2023/05/10 01:24:46;;;;;;;;;;;;;;;;;;4935065;29;1948;-51
2023/05/10 01:27:28;;;;;;;;;;;;;;;;;;4934334;29;2243;-48
2023/05/10 01:30:07;;;;;;;;;;;;;;;;;;4935323;29;1858;-50
2023/05/10 01:32:59;;;;;;;;;;;;;;;;;;4935129;29;2138;-51
2023/05/10 01:35:30;;;;;;;;;;;;;;;;;;4935170;29;1987;-55
2023/05/10 01:38:18;;;;;;;;;;;;;;;;;;4935095;29;1903;-54
2023/05/10 01:40:58;;;;;;;;;;;;;;;;;;4935269;29;2381;-46
2023/05/10 01:43:28;;;;;;;;;;;;;;;;;;4935014;29;1862;-55
2023/05/10 01:46:10;;;;;;;;;;;;;;;;;;4934840;29;2097;-46
2023/05/10 01:48:46;;;;;;;;;;;;;;;;;;4935219;28;1927;-46
2023/05/10 01:51:19;;;;;;;;;;;;;;;;;;4933724;29;1953;-55
2023/05/10 01:53:47;;;;;;;;;;;;;;;;;;4934707;29;1887;-41
2023/05/10 01:56:16;;;;;;;;;;;;;;;;;;4933563;29;2121;-57
2023/05/10 01:58:46;;;;;;;;;;;;;;;;;;4932478;29;1734;-56
2023/05/10 02:01:13;;;;;;;;;;;;;;;;;;4933604;29;2185;-45
2023/05/10 02:03:42;;;;;;;;;;;;;;;;;;4933475;29;2071;-38
2023/05/10 02:06:10;;;;;;;;;;;;;;;;;;4932975;29;1691;-44
2023/05/10 02:08:39;;;;;;;;;;;;;;;;;;4935095;29;2076;-40
2023/05/10 02:11:07;;;;;;;;;;;;;;;;;;4934662;29;1869;-40
2023/05/10 02:13:36;;;;;;;;;;;;;;;;;;4933656;29;2046;-40
2023/05/10 02:16:04;;;;;;;;;;;;;;;;;;4934403;29;2006;-43
2023/05/10 02:18:33;;;;;;;;;;;;;;;;;;4933274;29;1744;-39
2023/05/10 02:21:02;;;;;;;;;;;;;;;;;;4932977;29;2138;-40
2023/05/10 02:23:29;;;;;;;;;;;;;;;;;;4934351;29;1610;-41
2023/05/10 02:25:57;;;;;;;;;;;;;;;;;;4932738;29;1923;-45
2023/05/10 02:28:26;;;;;;;;;;;;;;;;;;4933467;29;2256;-50
2023/05/10 02:30:54;;;;;;;;;;;;;;;;;;4933043;29;1756;-43
2023/05/10 02:33:22;;;;;;;;;;;;;;;;;;4934245;29;2146;-44
2023/05/10 02:35:50;;;;;;;;;;;;;;;;;;4934072;29;1920;-42
2023/05/10 02:38:20;;;;;;;;;;;;;;;;;;4934076;29;1894;-47
2023/05/10 02:40:48;;;;;;;;;;;;;;;;;;4932892;29;2181;-51
2023/05/10 02:43:16;;;;;;;;;;;;;;;;;;4934063;29;2107;-42
2023/05/10 02:45:46;;;;;;;;;;;;;;;;;;4933626;29;2003;-43
2023/05/10 02:48:14;;;;;;;;;;;;;;;;;;4934128;29;2117;-55
2023/05/10 02:50:43;;;;;;;;;;;;;;;;;;4933687;29;2081;-40
2023/05/10 02:53:14;;;;;;;;;;;;;;;;;;4933992;29;1868;-42
2023/05/10 02:55:44;;;;;;;;;;;;;;;;;;4933453;29;1906;-45
2023/05/10 02:58:12;;;;;;;;;;;;;;;;;;4934101;29;2015;-39
2023/05/10 03:00:39;;;;;;;;;;;;;;;;;;4934005;29;1799;-41
2023/05/10 03:03:07;;;;;;;;;;;;;;;;;;4933055;29;2017;-46
2023/05/10 03:05:34;;;;;;;;;;;;;;;;;;4933608;29;2091;-41
2023/05/10 03:08:05;;;;;;;;;;;;;;;;;;4932444;29;2113;-54
2023/05/10 03:10:37;;;;;;;;;;;;;;;;;;4932570;29;2015;-40
2023/05/10 03:13:11;;;;;;;;;;;;;;;;;;4928664;29;2154;-47
2023/05/10 03:16:01;;;;;;;;;;;;;;;;;;4914297;29;2117;-43
2023/05/10 03:18:29;;;;;;;;;;;;;;;;;;4927172;29;1994;-44
2023/05/10 03:21:02;;;;;;;;;;;;;;;;;;4932094;29;2017;-43
2023/05/10 03:23:35;;;;;;;;;;;;;;;;;;4933627;29;1960;-45
2023/05/10 03:26:02;;;;;;;;;;;;;;;;;;4930835;29;2075;-41
2023/05/10 03:28:31;;;;;;;;;;;;;;;;;;4932202;29;2079;-49
2023/05/10 03:30:59;;;;;;;;;;;;;;;;;;4931959;29;1949;-45
2023/05/10 03:33:26;;;;;;;;;;;;;;;;;;4948171;29;2002;-42
2023/05/10 03:35:53;;;;;;;;;;;;;;;;;;4933317;29;1909;-43
2023/05/10 03:38:20;;;;;;;;;;;;;;;;;;4933498;29;1919;-46
2023/05/10 03:40:48;;;;;;;;;;;;;;;;;;4933268;29;1989;-53
2023/05/10 03:43:18;;;;;;;;;;;;;;;;;;4932213;29;2219;-50
2023/05/10 03:45:45;;;;;;;;;;;;;;;;;;4932589;29;1983;-54
2023/05/10 03:48:13;;;;;;;;;;;;;;;;;;4931789;29;2176;-45
2023/05/10 03:50:42;;;;;;;;;;;;;;;;;;4931779;29;1998;-54
2023/05/10 03:53:10;;;;;;;;;;;;;;;;;;4931966;29;2032;-48
2023/05/10 03:55:37;;;;;;;;;;;;;;;;;;4932053;29;1933;-46
2023/05/10 03:58:04;;;;;;;;;;;;;;;;;;4933280;29;2045;-48
2023/05/10 04:00:32;;;;;;;;;;;;;;;;;;4932155;29;1945;-55
2023/05/10 04:03:00;;;;;;;;;;;;;;;;;;4933160;29;2084;-51
2023/05/10 04:05:27;;;;;;;;;;;;;;;;;;4931728;29;2046;-51
2023/05/10 04:07:54;;;;;;;;;;;;;;;;;;4931752;29;1977;-42
2023/05/10 04:10:22;;;;;;;;;;;;;;;;;;4931649;29;2205;-47
2023/05/10 04:12:49;;;;;;;;;;;;;;;;;;4933013;29;1887;-40
2023/05/10 04:15:16;;;;;;;;;;;;;;;;;;4933150;29;2047;-53
2023/05/10 04:17:43;;;;;;;;;;;;;;;;;;4933021;29;1975;-46
2023/05/10 04:20:11;;;;;;;;;;;;;;;;;;4932972;29;1922;-52
2023/05/10 04:22:38;;;;;;;;;;;;;;;;;;4933028;29;1927;-50
2023/05/10 04:25:06;;;;;;;;;;;;;;;;;;4931578;29;2313;-55
2023/05/10 04:27:33;;;;;;;;;;;;;;;;;;4932266;29;1994;-53
2023/05/10 04:30:00;;;;;;;;;;;;;;;;;;4934279;29;2030;-47
2023/05/10 04:32:27;;;;;;;;;;;;;;;;;;4936702;29;2009;-53
2023/05/10 04:34:55;;;;;;;;;;;;;;;;;;4936185;29;1978;-46
2023/05/10 04:37:22;;;;;;;;;;;;;;;;;;4936296;29;2046;-47
2023/05/10 04:39:50;;;;;;;;;;;;;;;;;;4936277;29;2085;-48
2023/05/10 04:42:17;;;;;;;;;;;;;;;;;;4936084;29;2148;-54
2023/05/10 04:44:44;;;;;;;;;;;;;;;;;;4935915;29;1784;-50
2023/05/10 04:47:12;;;;;;;;;;;;;;;;;;4936089;29;1653;-45
2023/05/10 04:49:40;;;;;;;;;;;;;;;;;;4935609;29;2011;-47
2023/05/10 04:52:07;;;;;;;;;;;;;;;;;;4936349;29;1939;-47
2023/05/10 04:54:34;;;;;;;;;;;;;;;;;;4936128;29;2011;-44
2023/05/10 04:57:01;;;;;;;;;;;;;;;;;;4936080;29;2024;-58
2023/05/10 04:59:29;;;;;;;;;;;;;;;;;;4935994;29;1865;-48
2023/05/10 05:01:56;;;;;;;;;;;;;;;;;;4935810;29;1957;-50
2023/05/10 05:04:23;;;;;;;;;;;;;;;;;;4935592;29;1963;-53
2023/05/10 05:06:51;;;;;;;;;;;;;;;;;;4935684;29;2092;-53
2023/05/10 05:09:19;;;;;;;;;;;;;;;;;;4935977;29;2162;-43
2023/05/10 05:11:47;;;;;;;;;;;;;;;;;;4935434;29;1337;-47
2023/05/10 05:14:14;;;;;;;;;;;;;;;;;;4935656;29;1779;-58
2023/05/10 05:16:41;;;;;;;;;;;;;;;;;;4935216;29;2092;-50
2023/05/10 05:19:08;;;;;;;;;;;;;;;;;;4935854;29;2002;-42
2023/05/10 05:21:36;;;;;;;;;;;;;;;;;;4935630;29;2140;-43
2023/05/10 05:24:04;;;;;;;;;;;;;;;;;;4935373;29;2019;-46
2023/05/10 05:26:32;;;;;;;;;;;;;;;;;;4935391;29;1751;-53
2023/05/10 05:28:59;;;;;;;;;;;;;;;;;;4935160;29;2100;-52
2023/05/10 05:31:28;;;;;;;;;;;;;;;;;;4935529;29;2129;-51
2023/05/10 05:33:55;;;;;;;;;;;;;;;;;;4935158;29;2003;-48
2023/05/10 05:36:22;;;;;;;;;;;;;;;;;;4935291;29;1928;-42
2023/05/10 05:38:50;;;;;;;;;;;;;;;;;;4935273;29;1320;-49
2023/05/10 05:41:17;;;;;;;;;;;;;;;;;;4934826;29;2163;-55
2023/05/10 05:43:44;;;;;;;;;;;;;;;;;;4935669;29;2012;-53
2023/05/10 05:46:12;;;;;;;;;;;;;;;;;;4935561;29;2020;-52
2023/05/10 05:48:40;;;;;;;;;;;;;;;;;;4935349;29;1930;-41
2023/05/10 05:51:07;;;;;;;;;;;;;;;;;;4935420;29;1889;-55
2023/05/10 05:53:34;;;;;;;;;;;;;;;;;;4935194;29;1939;-50
2023/05/10 05:56:01;;;;;;;;;;;;;;;;;;4935007;29;1943;-56
2023/05/10 05:58:28;;;;;;;;;;;;;;;;;;4934732;29;2052;-56
2023/05/10 06:00:55;;;;;;;;;;;;;;;;;;4933578;29;1938;-52
2023/05/10 06:03:23;;;;;;;;;;;;;;;;;;4935001;29;2038;-52
2023/05/10 06:05:51;;;;;;;;;;;;;;;;;;4935661;29;2033;-45
2023/05/10 06:08:18;;;;;;;;;;;;;;;;;;4935580;29;1874;-51
2023/05/10 06:10:45;;;;;;;;;;;;;;;;;;4934361;29;1902;-51
2023/05/10 06:13:12;;;;;;;;;;;;;;;;;;4935405;29;1915;-45
2023/05/10 06:15:40;;;;;;;;;;;;;;;;;;4935237;29;1989;-47
2023/05/10 06:18:07;;;;;;;;;;;;;;;;;;4935227;29;2092;-52
2023/05/10 06:20:34;;;;;;;;;;;;;;;;;;4935321;29;1961;-50
2023/05/10 06:23:01;;;;;;;;;;;;;;;;;;4935404;29;1910;-52
2023/05/10 06:25:29;;;;;;;;;;;;;;;;;;4934957;29;2000;-48
2023/05/10 06:27:57;;;;;;;;;;;;;;;;;;4934900;29;2012;-46
2023/05/10 06:30:28;;;;;;;;;;;;;;;;;;4934378;29;2062;-43
2023/05/10 06:32:55;;;;;;;;;;;;;;;;;;4935039;29;2017;-46
2023/05/10 06:35:26;;;;;;;;;;;;;;;;;;4934624;29;2008;-57
2023/05/10 06:37:53;;;;;;;;;;;;;;;;;;4934596;29;2070;-57
2023/05/10 06:40:20;;;;;;;;;;;;;;;;;;4934567;29;1891;-54
2023/05/10 06:42:47;;;;;;;;;;;;;;;;;;4934562;29;2063;-52
2023/05/10 06:45:15;;;;;;;;;;;;;;;;;;4934768;29;2007;-54
2023/05/10 06:47:43;;;;;;;;;;;;;;;;;;4934897;29;2055;-55
2023/05/10 06:50:13;;;;;;;;;;;;;;;;;;4934911;29;1940;-56
2023/05/10 06:52:40;;;;;;;;;;;;;;;;;;4934338;29;1938;-52
2023/05/10 06:55:08;;;;;;;;;;;;;;;;;;4934377;29;2241;-56
2023/05/10 06:57:35;;;;;;;;;;;;;;;;;;4934351;29;2059;-42
2023/05/10 07:00:06;;;;;;;;;;;;;;;;;;4934238;29;2076;-51
2023/05/10 07:02:33;;;;;;;;;;;;;;;;;;4934454;29;1902;-58
2023/05/10 07:05:00;;;;;;;;;;;;;;;;;;4934174;29;2073;-54
2023/05/10 07:07:29;;;;;;;;;;;;;;;;;;4934510;29;2158;-59
2023/05/10 07:09:57;;;;;;;;;;;;;;;;;;4934611;29;2012;-56
2023/05/10 07:12:24;;;;;;;;;;;;;;;;;;4934124;29;2167;-54
2023/05/10 07:14:52;;;;;;;;;;;;;;;;;;4934141;29;2019;-53
2023/05/10 07:17:19;;;;;;;;;;;;;;;;;;4934128;29;2011;-47
2023/05/10 07:19:46;;;;;;;;;;;;;;;;;;4933748;29;2094;-53
2023/05/10 07:22:14;;;;;;;;;;;;;;;;;;4934161;29;1976;-48
2023/05/10 07:24:41;;;;;;;;;;;;;;;;;;4934213;29;2135;-52
2023/05/10 07:27:09;;;;;;;;;;;;;;;;;;4934136;29;1860;-58
2023/05/10 07:29:36;;;;;;;;;;;;;;;;;;4934054;29;1808;-58
2023/05/10 07:32:03;;;;;;;;;;;;;;;;;;4933852;29;1987;-51
2023/05/10 07:34:31;;;;;;;;;;;;;;;;;;4934307;29;2080;-51
2023/05/10 07:36:58;;;;;;;;;;;;;;;;;;4933894;29;2172;-46
2023/05/10 07:39:26;;;;;;;;;;;;;;;;;;4933687;29;1950;-52
2023/05/10 07:41:56;;;;;;;;;;;;;;;;;;4934244;29;1858;-50
2023/05/10 07:44:24;;;;;;;;;;;;;;;;;;4933942;29;2111;-48
2023/05/10 07:46:51;;;;;;;;;;;;;;;;;;4934204;29;2106;-47
2023/05/10 07:49:18;;;;;;;;;;;;;;;;;;4933813;29;2011;-48
2023/05/10 07:51:45;;;;;;;;;;;;;;;;;;4934230;29;2050;-48
2023/05/10 07:54:13;;;;;;;;;;;;;;;;;;4933890;29;1751;-47
2023/05/10 07:56:45;;;;;;;;;;;;;;;;;;4933391;29;2211;-55
2023/05/10 07:59:16;;;;;;;;;;;;;;;;;;4933534;29;1987;-49
2023/05/10 08:01:43;;;;;;;;;;;;;;;;;;4933887;29;2117;-52
2023/05/10 08:04:11;;;;;;;;;;;;;;;;;;4934299;29;2085;-49
2023/05/10 08:06:39;;;;;;;;;;;;;;;;;;4937694;29;1939;-44
2023/05/10 08:09:06;;;;;;;;;;;;;;;;;;4937703;29;1972;-46
2023/05/10 08:11:33;;;;;;;;;;;;;;;;;;4937128;29;2060;-53
2023/05/10 08:14:01;;;;;;;;;;;;;;;;;;4937489;29;2104;-47
2023/05/10 08:16:28;;;;;;;;;;;;;;;;;;4936944;29;1915;-55
2023/05/10 08:18:55;;;;;;;;;;;;;;;;;;4937365;29;2038;-52
2023/05/10 08:21:23;;;;;;;;;;;;;;;;;;4937252;29;2406;-51
2023/05/10 08:23:50;;;;;;;;;;;;;;;;;;4937318;29;1894;-50
2023/05/10 08:26:17;;;;;;;;;;;;;;;;;;4937050;29;1974;-54
2023/05/10 08:28:44;;;;;;;;;;;;;;;;;;4936927;29;1863;-50
2023/05/10 08:31:12;;;;;;;;;;;;;;;;;;4936970;29;1996;-44
2023/05/10 08:33:39;;;;;;;;;;;;;;;;;;4937009;29;2044;-53
2023/05/10 08:36:08;;;;;;;;;;;;;;;;;;4936995;29;1984;-50
2023/05/10 08:38:35;;;;;;;;;;;;;;;;;;4936755;29;2118;-57
2023/05/10 08:41:02;;;;;;;;;;;;;;;;;;4936850;29;1840;-52
2023/05/10 08:43:29;;;;;;;;;;;;;;;;;;4936701;29;2162;-51
2023/05/10 08:45:59;;;;;;;;;;;;;;;;;;4937011;29;2183;-50
2023/05/10 08:48:28;;;;;;;;;;;;;;;;;;4936718;29;2044;-50
2023/05/10 08:50:57;;;;;;;;;;;;;;;;;;4936806;29;2100;-57
2023/05/10 08:53:27;;;;;;;;;;;;;;;;;;4936531;29;2159;-54
2023/05/10 08:55:55;;;;;;;;;;;;;;;;;;4936768;29;2037;-50
2023/05/10 08:58:22;;;;;;;;;;;;;;;;;;4936396;29;1871;-53
2023/05/10 09:00:52;;;;;;;;;;;;;;;;;;4936777;29;2049;-48
2023/05/10 09:03:20;;;;;;;;;;;;;;;;;;4936801;29;1789;-53
2023/05/10 09:05:48;;;;;;;;;;;;;;;;;;4936481;29;2094;-50
2023/05/10 09:08:18;;;;;;;;;;;;;;;;;;4936536;29;2026;-45
2023/05/10 09:10:49;;;;;;;;;;;;;;;;;;4936373;29;1819;-55
2023/05/10 09:13:16;;;;;;;;;;;;;;;;;;4935998;29;2136;-46
2023/05/10 09:15:44;;;;;;;;;;;;;;;;;;4936125;29;1953;-51
2023/05/10 09:18:12;;;;;;;;;;;;;;;;;;4936042;29;2006;-54
2023/05/10 09:20:39;;;;;;;;;;;;;;;;;;4936177;29;1904;-48
2023/05/10 09:23:07;;;;;;;;;;;;;;;;;;4936150;29;2164;-55
2023/05/10 09:25:34;;;;;;;;;;;;;;;;;;4934971;29;2493;-46
2023/05/10 09:28:05;;;;;;;;;;;;;;;;;;4936209;29;2082;-54
2023/05/10 09:30:32;;;;;;;;;;;;;;;;;;4935609;29;2028;-57
2023/05/10 09:33:00;;;;;;;;;;;;;;;;;;4935882;29;1670;-57
2023/05/10 09:35:28;;;;;;;;;;;;;;;;;;4936052;29;2124;-52
2023/05/10 09:37:56;;;;;;;;;;;;;;;;;;4935776;29;2103;-50
2023/05/10 09:40:24;;;;;;;;;;;;;;;;;;4935991;29;1989;-50
2023/05/10 09:42:53;;;;;;;;;;;;;;;;;;4935929;29;1843;-43
2023/05/10 09:45:21;;;;;;;;;;;;;;;;;;4935903;29;2028;-53
2023/05/10 09:47:48;;;;;;;;;;;;;;;;;;4936214;29;2086;-52
2023/05/10 09:50:16;;;;;;;;;;;;;;;;;;4935611;29;1968;-53
2023/05/10 09:52:46;;;;;;;;;;;;;;;;;;4935712;29;2184;-49
2023/05/10 09:55:13;;;;;;;;;;;;;;;;;;4935563;29;2130;-54
2023/05/10 09:57:40;;;;;;;;;;;;;;;;;;4935415;29;1919;-58
2023/05/10 10:00:09;;;;;;;;;;;;;;;;;;4935475;29;1982;-54
2023/05/10 10:02:40;;;;;;;;;;;;;;;;;;4935281;29;2035;-47
2023/05/10 10:05:07;;;;;;;;;;;;;;;;;;4935280;29;1906;-49
2023/05/10 10:07:35;;;;;;;;;;;;;;;;;;4935146;29;2027;-48
2023/05/10 10:10:04;;;;;;;;;;;;;;;;;;4935418;29;1793;-47
2023/05/10 10:12:31;;;;;;;;;;;;;;;;;;4934971;29;1973;-50
2023/05/10 10:14:59;;;;;;;;;;;;;;;;;;4935348;29;1797;-57
2023/05/10 10:17:27;;;;;;;;;;;;;;;;;;4935067;29;2377;-47
2023/05/10 10:19:55;;;;;;;;;;;;;;;;;;4935376;29;2062;-58
2023/05/10 10:22:22;;;;;;;;;;;;;;;;;;4935552;29;1847;-52
2023/05/10 10:24:54;;;;;;;;;;;;;;;;;;4933914;29;2215;-53
2023/05/10 10:27:24;;;;;;;;;;;;;;;;;;4934439;29;2083;-43
2023/05/10 10:29:51;;;;;;;;;;;;;;;;;;4934861;29;2165;-42
2023/05/10 10:32:22;;;;;;;;;;;;;;;;;;4934964;29;1993;-54
2023/05/10 10:34:49;;;;;;;;;;;;;;;;;;4934647;29;1778;-54
2023/05/10 10:37:16;;;;;;;;;;;;;;;;;;4934802;29;2289;-51
2023/05/10 10:39:44;;;;;;;;;;;;;;;;;;4934697;29;1977;-56
2023/05/10 10:42:11;;;;;;;;;;;;;;;;;;4934290;29;2006;-40
2023/05/10 10:44:38;;;;;;;;;;;;;;;;;;4934683;29;1947;-47
2023/05/10 10:47:11;;;;;;;;;;;;;;;;;;4934812;29;1932;-40
2023/05/10 10:49:43;;;;;;;;;;;;;;;;;;4934554;29;2104;-40
2023/05/10 10:52:17;;;;;;;;;;;;;;;;;;4934270;29;1974;-44
2023/05/10 10:54:49;;;;;;;;;;;;;;;;;;4934657;29;1905;-41
2023/05/10 10:57:18;;;;;;;;;;;;;;;;;;4934478;29;2205;-40
2023/05/10 10:59:46;;;;;;;;;;;;;;;;;;4934602;29;2002;-55
2023/05/10 11:02:32;;;;;;;;;;;;;;;;;;4934505;29;2009;-54
2023/05/10 11:04:59;;;;;;;;;;;;;;;;;;4934518;29;1926;-57
2023/05/10 11:07:26;;;;;;;;;;;;;;;;;;4933163;29;1990;-55
2023/05/10 11:09:53;;;;;;;;;;;;;;;;;;4934327;29;1977;-55
2023/05/10 11:12:21;;;;;;;;;;;;;;;;;;4934012;29;1378;-57
2023/05/10 11:14:51;;;;;;;;;;;;;;;;;;4934084;29;2413;-41
2023/05/10 11:17:26;;;;;;;;;;;;;;;;;;4934015;29;1984;-46
2023/05/10 11:20:06;;;;;;;;;;;;;;;;;;4934097;29;2085;-40
2023/05/10 11:22:49;;;;;;;;;;;;;;;;;;4934108;29;1797;-40
2023/05/10 11:25:16;;;;;;;;;;;;;;;;;;4934275;29;1938;-40
2023/05/10 11:27:44;;;;;;;;;;;;;;;;;;4933894;29;1988;-40
2023/05/10 11:30:14;;;;;;;;;;;;;;;;;;4934101;29;1872;-46
2023/05/10 11:32:42;;;;;;;;;;;;;;;;;;4934302;29;1908;-41
2023/05/10 11:35:12;;;;;;;;;;;;;;;;;;4933976;29;1926;-45
2023/05/10 11:37:43;;;;;;;;;;;;;;;;;;4933884;29;2034;-43
2023/05/10 11:40:10;;;;;;;;;;;;;;;;;;4932834;29;2097;-50
2023/05/10 11:42:38;;;;;;;;;;;;;;;;;;4933815;29;1981;-40
2023/05/10 11:45:05;;;;;;;;;;;;;;;;;;4933956;29;1927;-43
2023/05/10 11:47:32;;;;;;;;;;;;;;;;;;4933632;29;2090;-40
2023/05/10 11:50:00;;;;;;;;;;;;;;;;;;4934051;29;1918;-45
2023/05/10 11:52:27;;;;;;;;;;;;;;;;;;4933650;29;2006;-40
2023/05/10 11:54:54;;;;;;;;;;;;;;;;;;4933948;29;2013;-41
2023/05/10 11:57:26;;;;;;;;;;;;;;;;;;4933855;29;1976;-41
2023/05/10 11:59:54;;;;;;;;;;;;;;;;;;4933619;29;1954;-40
2023/05/10 12:02:21;;;;;;;;;;;;;;;;;;4933810;29;1976;-40
2023/05/10 12:04:49;;;;;;;;;;;;;;;;;;4933897;29;2239;-40
2023/05/10 12:07:17;;;;;;;;;;;;;;;;;;4933114;29;2020;-39
2023/05/10 12:09:45;;;;;;;;;;;;;;;;;;4933745;29;1905;-57
2023/05/10 12:12:18;;;;;;;;;;;;;;;;;;4933595;29;1874;-43
2023/05/10 12:14:48;;;;;;;;;;;;;;;;;;4933260;29;2040;-46
2023/05/10 12:17:16;;;;;;;;;;;;;;;;;;4933226;29;1906;-50
2023/05/10 12:19:43;;;;;;;;;;;;;;;;;;4933613;29;1795;-50
2023/05/10 12:22:10;;;;;;;;;;;;;;;;;;4933724;29;1999;-43
2023/05/10 12:24:38;;;;;;;;;;;;;;;;;;4923662;29;2056;-48
2023/05/10 12:27:08;;;;;;;;;;;;;;;;;;4914522;29;1926;-40
2023/05/10 12:29:35;;;;;;;;;;;;;;;;;;4915023;29;2226;-52
2023/05/10 12:32:02;;;;;;;;;;;;;;;;;;4914521;29;1908;-41
2023/05/10 12:34:30;;;;;;;;;;;;;;;;;;4914514;29;2075;-54
2023/05/10 12:36:58;;;;;;;;;;;;;;;;;;4914434;29;1945;-41
2023/05/10 12:39:25;;;;;;;;;;;;;;;;;;4921232;29;1992;-50
2023/05/10 12:41:52;;;;;;;;;;;;;;;;;;4933318;29;2258;-56
2023/05/10 12:44:19;;;;;;;;;;;;;;;;;;4933301;29;2022;-40
2023/05/10 12:46:47;;;;;;;;;;;;;;;;;;4933140;29;1994;-55
2023/05/10 12:49:14;;;;;;;;;;;;;;;;;;4933492;29;2105;-55
2023/05/10 12:51:41;;;;;;;;;;;;;;;;;;4935971;29;2143;-57
2023/05/10 12:54:09;;;;;;;;;;;;;;;;;;4919270;29;2072;-57
2023/05/10 12:56:36;;;;;;;;;;;;;;;;;;4917856;29;1969;-57
2023/05/10 12:59:04;;;;;;;;;;;;;;;;;;4917718;29;2182;-47
2023/05/10 13:01:31;;;;;;;;;;;;;;;;;;4917536;29;1989;-41
2023/05/10 13:03:59;;;;;;;;;;;;;;;;;;4917690;29;1955;-58
2023/05/10 13:06:27;;;;;;;;;;;;;;;;;;4917357;29;2057;-40
2023/05/10 13:08:54;;;;;;;;;;;;;;;;;;4917319;29;1882;-40
2023/05/10 13:11:21;;;;;;;;;;;;;;;;;;4917296;29;2101;-57
2023/05/10 13:13:48;;;;;;;;;;;;;;;;;;4917338;29;2160;-43
2023/05/10 13:16:18;;;;;;;;;;;;;;;;;;4917434;29;1968;-51
2023/05/10 13:18:46;;;;;;;;;;;;;;;;;;4920661;29;2173;-60
2023/05/10 13:21:13;;;;;;;;;;;;;;;;;;4936242;29;2080;-40
2023/05/10 13:23:40;;;;;;;;;;;;;;;;;;4936077;29;2005;-40
2023/05/10 13:26:07;;;;;;;;;;;;;;;;;;4935653;29;1884;-41
2023/05/10 13:28:35;;;;;;;;;;;;;;;;;;4934312;29;1976;-43
2023/05/10 13:31:05;;;;;;;;;;;;;;;;;;4934648;29;1962;-42
2023/05/10 13:33:33;;;;;;;;;;;;;;;;;;4934174;29;1923;-40
2023/05/10 13:36:00;;;;;;;;;;;;;;;;;;4934199;29;1924;-41
2023/05/10 13:38:27;;;;;;;;;;;;;;;;;;4932876;29;2004;-49
2023/05/10 13:40:54;;;;;;;;;;;;;;;;;;4934163;29;1892;-40
2023/05/10 13:43:22;;;;;;;;;;;;;;;;;;4935842;29;1899;-40
2023/05/10 13:45:49;;;;;;;;;;;;;;;;;;4935781;29;2052;-41
2023/05/10 13:48:16;;;;;;;;;;;;;;;;;;4935725;29;2145;-44
2023/05/10 13:50:43;;;;;;;;;;;;;;;;;;4935233;29;1958;-40
2023/05/10 13:53:10;;;;;;;;;;;;;;;;;;4935601;29;1967;-42
2023/05/10 13:55:38;;;;;;;;;;;;;;;;;;4935671;29;2054;-40
2023/05/10 13:58:05;;;;;;;;;;;;;;;;;;4935540;29;1994;-40
2023/05/10 14:00:32;;;;;;;;;;;;;;;;;;4935544;29;2112;-41
2023/05/10 14:03:00;;;;;;;;;;;;;;;;;;4934423;29;2131;-50
2023/05/10 14:05:27;;;;;;;;;;;;;;;;;;4935393;29;2102;-40
2023/05/10 14:07:55;;;;;;;;;;;;;;;;;;4935581;29;1980;-40
2023/05/10 14:10:22;;;;;;;;;;;;;;;;;;4935414;29;1853;-50
2023/05/10 14:12:49;;;;;;;;;;;;;;;;;;4935318;29;2078;-46
2023/05/10 14:15:16;;;;;;;;;;;;;;;;;;4935018;29;1972;-43
2023/05/10 14:17:44;;;;;;;;;;;;;;;;;;4935268;29;2066;-40
2023/05/10 14:20:11;;;;;;;;;;;;;;;;;;4935476;29;2007;-56
2023/05/10 14:22:38;;;;;;;;;;;;;;;;;;4935334;29;2011;-40
2023/05/10 14:25:06;;;;;;;;;;;;;;;;;;4934920;29;2062;-42
2023/05/10 14:27:33;;;;;;;;;;;;;;;;;;4934796;29;2158;-40
2023/05/10 14:30:00;;;;;;;;;;;;;;;;;;4934820;29;2021;-46
2023/05/10 14:32:28;;;;;;;;;;;;;;;;;;4934955;29;2067;-42
2023/05/10 14:34:55;;;;;;;;;;;;;;;;;;4934760;29;1943;-41
2023/05/10 14:37:22;;;;;;;;;;;;;;;;;;4934809;29;2190;-40
2023/05/10 14:39:49;;;;;;;;;;;;;;;;;;4934781;29;1962;-40
2023/05/10 14:42:17;;;;;;;;;;;;;;;;;;4934791;29;2097;-43
2023/05/10 14:44:44;;;;;;;;;;;;;;;;;;4934458;29;1996;-40
2023/05/10 14:47:13;;;;;;;;;;;;;;;;;;4935056;29;2073;-41
2023/05/10 14:49:41;;;;;;;;;;;;;;;;;;4934851;29;2090;-56
2023/05/10 14:52:08;;;;;;;;;;;;;;;;;;4934557;29;1973;-40
2023/05/10 14:54:35;;;;;;;;;;;;;;;;;;4934466;29;2085;-58
2023/05/10 14:57:02;;;;;;;;;;;;;;;;;;4934080;29;1993;-57
2023/05/10 14:59:29;;;;;;;;;;;;;;;;;;4934597;29;2081;-50
2023/05/10 15:01:56;;;;;;;;;;;;;;;;;;4934358;29;2017;-56
2023/05/10 15:04:24;;;;;;;;;;;;;;;;;;4934600;29;2077;-57
2023/05/10 15:06:58;;;;;;;;;;;;;;;;;;4934391;29;1923;-41
2023/05/10 15:09:27;;;;;;;;;;;;;;;;;;4934259;29;1606;-41
2023/05/10 15:11:55;;;;;;;;;;;;;;;;;;4934007;29;2072;-57
2023/05/10 15:14:22;;;;;;;;;;;;;;;;;;4934082;29;1998;-50
2023/05/10 15:16:50;;;;;;;;;;;;;;;;;;4933933;29;1981;-58
2023/05/10 15:19:17;;;;;;;;;;;;;;;;;;4933901;29;1930;-44
2023/05/10 15:21:44;;;;;;;;;;;;;;;;;;4934496;29;2073;-56
2023/05/10 15:24:12;;;;;;;;;;;;;;;;;;4934362;29;2082;-58
2023/05/10 15:26:40;;;;;;;;;;;;;;;;;;4934173;29;2154;-46
2023/05/10 15:29:09;;;;;;;;;;;;;;;;;;4933050;29;1985;-57
2023/05/10 15:31:36;;;;;;;;;;;;;;;;;;4934123;29;2019;-54
2023/05/10 15:34:04;;;;;;;;;;;;;;;;;;4933155;29;2115;-40
2023/05/10 15:36:31;;;;;;;;;;;;;;;;;;4934179;29;2188;-56
2023/05/10 15:38:58;;;;;;;;;;;;;;;;;;4933811;29;2049;-54
2023/05/10 15:41:25;;;;;;;;;;;;;;;;;;4934019;29;2321;-40
2023/05/10 15:43:53;;;;;;;;;;;;;;;;;;4933833;29;2110;-41
2023/05/10 15:46:21;;;;;;;;;;;;;;;;;;4933984;29;1980;-39
2023/05/10 15:48:48;;;;;;;;;;;;;;;;;;4933964;29;2138;-40
2023/05/10 15:51:15;;;;;;;;;;;;;;;;;;4934031;29;1662;-53
2023/05/10 15:53:42;;;;;;;;;;;;;;;;;;4933886;29;2130;-40
2023/05/10 15:56:25;;;;;;;;;;;;;;;;;;4933605;29;1843;-51
2023/05/10 15:58:52;;;;;;;;;;;;;;;;;;4933612;29;2252;-39
2023/05/10 16:01:20;;;;;;;;;;;;;;;;;;4933537;29;2096;-57
2023/05/10 16:03:47;;;;;;;;;;;;;;;;;;4933822;29;2075;-58
2023/05/10 16:06:14;;;;;;;;;;;;;;;;;;4934114;29;1930;-40
2023/05/10 16:08:42;;;;;;;;;;;;;;;;;;4933630;29;2045;-57
2023/05/10 16:11:09;;;;;;;;;;;;;;;;;;4933621;29;2004;-42
2023/05/10 16:13:36;;;;;;;;;;;;;;;;;;4933167;29;2032;-58
2023/05/10 16:16:04;;;;;;;;;;;;;;;;;;4933849;29;2073;-52
2023/05/10 16:18:31;;;;;;;;;;;;;;;;;;4933548;29;1931;-40
2023/05/10 16:20:58;;;;;;;;;;;;;;;;;;4933498;29;2023;-54
2023/05/10 16:23:26;;;;;;;;;;;;;;;;;;4933491;29;2219;-51
2023/05/10 16:25:54;;;;;;;;;;;;;;;;;;4935012;29;1817;-40
2023/05/10 16:28:21;;;;;;;;;;;;;;;;;;4937263;29;1972;-44
2023/05/10 16:30:48;;;;;;;;;;;;;;;;;;4937098;29;1938;-53
2023/05/10 16:33:16;;;;;;;;;;;;;;;;;;4937442;29;2102;-55
2023/05/10 16:35:43;;;;;;;;;;;;;;;;;;4937143;29;2096;-40
2023/05/10 16:38:10;;;;;;;;;;;;;;;;;;4936947;29;2533;-42
2023/05/10 16:40:38;;;;;;;;;;;;;;;;;;4936794;29;1944;-40
2023/05/10 16:43:06;;;;;;;;;;;;;;;;;;4936827;29;2103;-47
2023/05/10 16:45:33;;;;;;;;;;;;;;;;;;4936982;29;1776;-42
2023/05/10 16:48:01;;;;;;;;;;;;;;;;;;4937059;29;2223;-43
2023/05/10 16:50:28;;;;;;;;;;;;;;;;;;4936575;29;1954;-42
2023/05/10 16:52:56;;;;;;;;;;;;;;;;;;4936613;29;2083;-42
2023/05/10 16:55:23;;;;;;;;;;;;;;;;;;4936860;29;2170;-42
2023/05/10 16:57:57;;;;;;;;;;;;;;;;;;4936376;29;2016;-42
2023/05/10 17:00:25;;;;;;;;;;;;;;;;;;4934040;29;1955;-42
2023/05/10 17:02:53;;;;;;;;;;;;;;;;;;4936678;29;2073;-43
2023/05/10 17:05:22;;;;;;;;;;;;;;;;;;4936321;29;1979;-46
2023/05/10 17:07:49;;;;;;;;;;;;;;;;;;4936637;29;2245;-44
2023/05/10 17:10:16;;;;;;;;;;;;;;;;;;4936395;29;1975;-48